Time;durP1;ratioP1;P1;durP2;ratioP2;P2;SDS_P1;SDS_P2;PMS_P1;PMS_P2;Temp;Humidity;BMP_temperature;BMP_pressure;BME280_temperature;BME280_humidity;BME280_pressure;Samples;Min_cycle;Max_cycle;Signal;HPM_P1;HPM_P2
2021/12/05 00:23:36;;;;;;;8.15;2.97;;;2.00;99.90;;;;;;5084083;28;20066;-71
2021/12/05 00:26:03;;;;;;;11.20;4.10;;;2.00;99.90;;;;;;5084695;28;20043;-72
2021/12/05 00:42:16;;;;;;;8.63;3.33;;;1.90;99.90;;;;;;5084677;28;20067;-75
2021/12/05 00:55:52;;;;;;;10.82;4.57;;;1.90;99.90;;;;;;5084296;28;20032;-74
2021/12/05 01:01:43;;;;;;;10.50;4.32;;;1.90;99.90;;;;;;5063930;28;20032;-75
2021/12/05 01:09:27;;;;;;;10.88;4.20;;;2.00;99.90;;;;;;5088298;28;20103;-73
2021/12/05 01:17:47;;;;;;;11.57;3.90;;;2.00;99.90;;;;;;5088083;28;20044;-73
2021/12/05 01:20:17;;;;;;;11.68;4.90;;;2.10;99.90;;;;;;5095228;28;20028;-73
2021/12/05 01:22:53;;;;;;;10.80;4.07;;;2.00;99.90;;;;;;5108502;28;20107;-73
2021/12/05 01:27:55;;;;;;;12.18;4.10;;;2.00;99.90;;;;;;5108338;28;20054;-73
2021/12/05 01:30:46;;;;;;;13.50;5.68;;;1.90;99.90;;;;;;5108119;28;20027;-72
2021/12/05 02:29:56;;;;;;;14.93;4.35;;;2.00;99.90;;;;;;5107071;28;20035;-79
2021/12/05 02:42:59;;;;;;;13.10;4.80;;;2.00;99.90;;;;;;5074578;28;20028;-83
2021/12/05 02:45:26;;;;;;;13.23;5.30;;;2.00;99.90;;;;;;5074000;28;20086;-80
2021/12/05 02:47:53;;;;;;;10.18;4.63;;;2.00;99.90;;;;;;5086729;28;20039;-78
2021/12/05 02:50:25;;;;;;;14.85;4.38;;;2.00;99.90;;;;;;5088373;28;20733;-78
2021/12/05 02:52:55;;;;;;;10.68;3.90;;;2.00;99.90;;;;;;5106221;28;20024;-76
2021/12/05 02:55:36;;;;;;;12.05;4.07;;;2.00;99.90;;;;;;5106052;28;20058;-76
2021/12/05 02:58:06;;;;;;;13.40;5.03;;;1.90;99.90;;;;;;5105778;28;20117;-76
2021/12/05 03:01:06;;;;;;;9.40;4.47;;;2.00;99.90;;;;;;5106428;28;20024;-76
2021/12/05 03:03:25;;;;;;;9.57;4.10;;;2.00;99.90;;;;;;5104754;28;20032;-75
2021/12/05 03:05:58;;;;;;;7.80;3.83;;;2.00;99.90;;;;;;5087526;28;20534;-74
2021/12/05 03:08:30;;;;;;;7.57;3.28;;;2.00;99.90;;;;;;5088102;28;20028;-75
2021/12/05 03:10:58;;;;;;;8.85;3.42;;;2.00;99.90;;;;;;5104732;28;20081;-75
2021/12/05 03:13:36;;;;;;;8.18;3.78;;;2.00;99.90;;;;;;5105252;28;20457;-75
2021/12/05 03:16:04;;;;;;;11.20;4.65;;;2.00;99.90;;;;;;5087730;28;20563;-75
2021/12/05 03:18:31;;;;;;;8.65;3.50;;;2.00;99.90;;;;;;5105243;28;20024;-77
2021/12/05 03:20:58;;;;;;;11.07;3.63;;;2.10;99.90;;;;;;5105899;28;20035;-76
2021/12/05 03:23:25;;;;;;;11.55;3.95;;;2.10;99.90;;;;;;5104227;28;20020;-78
2021/12/05 03:25:51;;;;;;;11.27;3.70;;;2.00;99.90;;;;;;5087520;28;20051;-78
2021/12/05 03:28:16;;;;;;;10.73;3.97;;;2.00;99.90;;;;;;5087037;28;20020;-79
2021/12/05 03:30:45;;;;;;;10.70;4.20;;;2.00;99.90;;;;;;5105793;28;20032;-77
2021/12/05 03:33:11;;;;;;;12.20;4.20;;;2.00;99.90;;;;;;5105715;28;20043;-77
2021/12/05 03:35:38;;;;;;;8.85;4.20;;;2.00;99.90;;;;;;5105760;28;20024;-79
2021/12/05 03:38:09;;;;;;;11.30;3.55;;;2.00;99.90;;;;;;5079654;28;20051;-78
2021/12/05 03:40:35;;;;;;;8.32;3.90;;;2.00;99.90;;;;;;5084136;28;20134;-77
2021/12/05 03:43:06;;;;;;;15.23;4.20;;;2.10;99.90;;;;;;5073314;28;20031;-77
2021/12/05 03:45:41;;;;;;;13.25;5.35;;;2.00;99.90;;;;;;5086680;28;20032;-78
2021/12/05 03:48:14;;;;;;;8.65;3.90;;;2.00;99.90;;;;;;5087026;28;20028;-78
2021/12/05 03:50:42;;;;;;;12.73;5.32;;;2.00;99.90;;;;;;5086969;28;20036;-79
2021/12/05 03:53:10;;;;;;;13.00;4.93;;;2.00;99.90;;;;;;5105539;28;20111;-77
2021/12/05 03:55:40;;;;;;;8.57;3.40;;;2.00;99.90;;;;;;5087456;28;20024;-78
2021/12/05 03:58:07;;;;;;;18.45;6.22;;;2.00;99.90;;;;;;5086549;28;20031;-78
2021/12/05 04:00:43;;;;;;;10.18;3.70;;;2.00;99.90;;;;;;5086678;28;20050;-77
2021/12/05 04:03:12;;;;;;;14.52;5.13;;;2.00;99.90;;;;;;5105556;28;20165;-78
2021/12/05 04:05:39;;;;;;;14.35;4.80;;;2.00;99.90;;;;;;5087046;28;20484;-78
2021/12/05 04:08:10;;;;;;;13.40;5.00;;;2.00;99.90;;;;;;5105396;28;20024;-77
2021/12/05 04:10:41;;;;;;;15.93;5.20;;;2.00;99.90;;;;;;5086714;28;20043;-78
2021/12/05 04:13:08;;;;;;;9.40;3.75;;;1.90;99.90;;;;;;5087008;28;20055;-77
2021/12/05 04:15:34;;;;;;;11.13;4.90;;;2.00;99.90;;;;;;5086872;28;20020;-77
2021/12/05 04:18:01;;;;;;;10.63;4.15;;;2.00;99.90;;;;;;5086827;28;20028;-76
2021/12/05 04:20:27;;;;;;;12.07;5.35;;;2.00;99.90;;;;;;5086601;28;20028;-75
2021/12/05 04:22:54;;;;;;;9.30;3.47;;;1.90;99.90;;;;;;5086620;28;20020;-76
2021/12/05 04:25:21;;;;;;;9.52;3.97;;;1.90;99.90;;;;;;5104909;28;20054;-76
2021/12/05 04:27:49;;;;;;;10.23;4.05;;;1.90;99.90;;;;;;5086823;28;20028;-76
2021/12/05 04:30:19;;;;;;;11.27;4.15;;;1.90;99.90;;;;;;5104883;28;20027;-76
2021/12/05 04:32:48;;;;;;;10.05;4.30;;;2.00;99.90;;;;;;5105019;28;20020;-75
2021/12/05 04:35:15;;;;;;;10.10;3.88;;;2.00;99.90;;;;;;5086194;28;20097;-75
2021/12/05 04:37:41;;;;;;;10.80;4.30;;;2.10;99.90;;;;;;5104850;28;20089;-76
2021/12/05 04:40:09;;;;;;;19.15;5.40;;;2.00;99.90;;;;;;5086849;28;20385;-77
2021/12/05 04:42:35;;;;;;;14.68;4.53;;;2.00;99.90;;;;;;5104970;28;20519;-77
2021/12/05 04:45:04;;;;;;;15.85;5.18;;;2.00;99.90;;;;;;5104574;28;20039;-77
2021/12/05 04:47:30;;;;;;;9.90;4.10;;;2.10;99.90;;;;;;5086344;28;20024;-76
2021/12/05 04:49:56;;;;;;;13.43;4.93;;;2.00;99.90;;;;;;5086548;28;20042;-78
2021/12/05 04:52:22;;;;;;;14.23;5.03;;;2.10;99.90;;;;;;5104749;28;20032;-77
2021/12/05 04:54:47;;;;;;;8.13;3.45;;;2.10;99.90;;;;;;5086172;28;20391;-77
2021/12/05 04:57:13;;;;;;;16.95;6.80;;;2.10;99.90;;;;;;5104355;28;20016;-75
2021/12/05 04:59:45;;;;;;;8.85;4.63;;;2.10;99.90;;;;;;5103185;28;20033;-76
2021/12/05 05:02:11;;;;;;;11.75;4.28;;;2.20;99.90;;;;;;5104320;28;20024;-76
2021/12/05 05:04:43;;;;;;;12.65;4.70;;;2.10;99.90;;;;;;5086543;28;20056;-77
2021/12/05 05:07:21;;;;;;;14.27;4.47;;;2.10;99.90;;;;;;5086485;28;20380;-76
2021/12/05 05:09:49;;;;;;;11.07;4.13;;;2.10;99.90;;;;;;5104059;28;20032;-75
2021/12/05 05:12:15;;;;;;;11.32;4.38;;;2.00;99.90;;;;;;5104588;28;20028;-77
2021/12/05 05:14:44;;;;;;;13.10;5.22;;;2.00;99.90;;;;;;5086254;28;20032;-77
2021/12/05 05:17:10;;;;;;;14.50;4.93;;;2.00;99.90;;;;;;5086049;28;20051;-77
2021/12/05 05:19:45;;;;;;;10.00;4.45;;;2.00;99.90;;;;;;5086603;28;20028;-77
2021/12/05 05:25:44;;;;;;;10.38;4.07;;;1.90;99.90;;;;;;5104506;28;20046;-74
2021/12/05 05:46:25;;;;;;;16.35;5.07;;;2.10;99.90;;;;;;5085319;28;20041;-74
2021/12/05 05:49:13;;;;;;;14.93;5.07;;;2.10;99.90;;;;;;5087709;28;20024;-73
2021/12/05 05:51:36;;;;;;;9.48;3.83;;;2.10;99.90;;;;;;5087289;28;20051;-75
2021/12/05 05:54:02;;;;;;;15.05;5.07;;;2.10;99.90;;;;;;5087519;28;20036;-74
2021/12/05 05:56:29;;;;;;;13.68;4.47;;;2.20;99.90;;;;;;5087520;28;20043;-75
2021/12/05 05:58:59;;;;;;;13.30;4.75;;;2.20;99.90;;;;;;5087398;28;20035;-73
2021/12/05 06:04:07;;;;;;;12.15;4.28;;;2.20;99.90;;;;;;5087325;28;20032;-73
2021/12/05 06:06:33;;;;;;;17.40;6.20;;;2.20;99.90;;;;;;5087339;28;20029;-73
2021/12/05 06:09:00;;;;;;;17.70;4.97;;;2.20;99.90;;;;;;5087530;28;20047;-72
2021/12/05 06:11:27;;;;;;;11.52;4.95;;;2.20;99.90;;;;;;5070295;28;20063;-74
2021/12/05 06:13:52;;;;;;;13.65;4.85;;;2.20;99.90;;;;;;5087100;28;20362;-74
2021/12/05 06:16:19;;;;;;;9.50;4.43;;;2.20;99.90;;;;;;5092391;28;20051;-74
2021/12/05 06:18:48;;;;;;;11.45;5.07;;;2.20;99.90;;;;;;5078366;28;20059;-75
2021/12/05 06:21:18;;;;;;;12.27;5.22;;;2.30;99.90;;;;;;5081438;28;20028;-74
2021/12/05 06:23:44;;;;;;;12.27;4.47;;;2.30;99.90;;;;;;5107282;28;20028;-74
2021/12/05 06:26:19;;;;;;;10.38;4.13;;;2.30;99.90;;;;;;5086351;28;20036;-75
2021/12/05 06:28:47;;;;;;;17.98;5.13;;;2.30;99.90;;;;;;5068582;28;20116;-74
2021/12/05 06:31:25;;;;;;;11.48;4.38;;;2.30;99.90;;;;;;5091419;28;20035;-76
2021/12/05 06:47:09;;;;;;;10.90;3.55;;;2.30;99.90;;;;;;5102173;28;20070;-75
2021/12/05 06:49:35;;;;;;;13.57;4.25;;;2.30;99.90;;;;;;5089399;28;20024;-75
2021/12/05 06:52:02;;;;;;;12.38;4.28;;;2.30;99.90;;;;;;5068343;28;20021;-74
2021/12/05 06:54:28;;;;;;;14.90;4.60;;;2.30;99.90;;;;;;5082130;28;20099;-74
2021/12/05 06:56:53;;;;;;;13.55;4.88;;;2.40;99.90;;;;;;5079356;28;20122;-76
2021/12/05 06:59:19;;;;;;;14.05;4.72;;;2.40;99.90;;;;;;5095752;28;20032;-75
2021/12/05 07:01:45;;;;;;;15.13;5.10;;;2.30;99.90;;;;;;5097063;28;20028;-74
2021/12/05 07:04:43;;;;;;;10.48;4.30;;;2.30;99.90;;;;;;5068136;28;20420;-77
2021/12/05 07:07:04;;;;;;;9.70;4.43;;;2.40;99.90;;;;;;5091841;28;20563;-77
2021/12/05 07:09:30;;;;;;;10.35;4.32;;;2.40;99.90;;;;;;5086048;28;20032;-77
2021/12/05 07:14:36;;;;;;;27.33;5.45;;;2.40;99.90;;;;;;5098551;28;20025;-77
2021/12/05 07:17:08;;;;;;;14.20;5.03;;;2.40;99.90;;;;;;5086774;28;20043;-78
2021/12/05 07:20:01;;;;;;;14.07;5.57;;;2.40;99.90;;;;;;5086238;28;20503;-77
2021/12/05 07:23:28;;;;;;;16.90;4.38;;;2.40;99.90;;;;;;5067834;28;20057;-77
2021/12/05 07:25:27;;;;;;;14.35;5.35;;;2.40;99.90;;;;;;5078457;28;20060;-76
2021/12/05 07:41:55;;;;;;;12.77;5.47;;;2.50;99.90;;;;;;5087992;28;20773;-75
2021/12/05 07:44:21;;;;;;;11.50;4.15;;;2.50;99.90;;;;;;5084886;28;20029;-76
2021/12/05 07:46:47;;;;;;;13.68;5.47;;;2.50;99.90;;;;;;5067165;28;20075;-79
2021/12/05 07:49:16;;;;;;;13.32;5.32;;;2.50;99.90;;;;;;5067281;28;20039;-79
2021/12/05 07:51:49;;;;;;;12.80;4.50;;;2.50;99.90;;;;;;5067318;28;20092;-79
2021/12/05 07:54:34;;;;;;;12.75;4.72;;;2.50;99.90;;;;;;5067277;28;20028;-79
2021/12/05 07:57:14;;;;;;;12.13;4.78;;;2.50;99.90;;;;;;5076274;28;20132;-76
2021/12/05 08:16:15;;;;;;;11.25;4.68;;;2.60;99.90;;;;;;5105289;28;20528;-77
2021/12/05 08:18:41;;;;;;;10.23;4.30;;;2.50;99.90;;;;;;5086895;28;20119;-75
2021/12/05 08:21:09;;;;;;;12.90;4.63;;;2.60;99.90;;;;;;5105324;28;20027;-76
2021/12/05 08:23:40;;;;;;;12.98;5.10;;;2.60;99.90;;;;;;5087143;28;20032;-76
2021/12/05 08:26:10;;;;;;;11.15;4.82;;;2.60;99.90;;;;;;5101058;28;20043;-76
2021/12/05 08:34:00;;;;;;;10.35;5.70;;;2.60;99.90;;;;;;5103577;28;20059;-75
2021/12/05 08:41:47;;;;;;;11.38;5.05;;;2.60;99.90;;;;;;5104679;28;20032;-75
2021/12/05 09:29:05;;;;;;;11.18;4.93;;;2.70;99.90;;;;;;5100939;28;20028;-74
2021/12/05 10:26:57;;;;;;;9.90;5.15;;;3.20;99.90;;;;;;5101299;28;20055;-81
2021/12/05 10:35:52;;;;;;;13.38;5.00;;;3.30;99.90;;;;;;5086836;28;20078;-78
2021/12/05 10:38:23;;;;;;;6.18;3.25;;;3.40;99.90;;;;;;5088082;28;20039;-80
2021/12/05 10:41:20;;;;;;;16.63;4.78;;;3.40;99.90;;;;;;5085255;28;20035;-79
2021/12/05 10:43:50;;;;;;;10.40;4.60;;;3.30;99.90;;;;;;5080329;28;20024;-79
2021/12/05 10:46:18;;;;;;;10.82;5.35;;;3.40;99.90;;;;;;5068503;28;20128;-80
2021/12/05 10:48:49;;;;;;;13.73;4.97;;;3.40;99.90;;;;;;5086878;28;20032;-80
2021/12/05 10:51:19;;;;;;;14.68;5.72;;;3.40;99.90;;;;;;5086296;28;20032;-79
2021/12/05 10:53:53;;;;;;;13.20;5.38;;;3.40;99.90;;;;;;5080683;28;20040;-79
2021/12/05 10:56:37;;;;;;;13.48;6.20;;;3.40;99.90;;;;;;5090380;28;20029;-76
2021/12/05 10:59:19;;;;;;;16.85;5.57;;;3.50;99.90;;;;;;5086218;28;20028;-76
2021/12/05 11:01:56;;;;;;;11.65;4.90;;;3.50;99.90;;;;;;5085936;28;20373;-75
2021/12/05 11:04:46;;;;;;;16.63;6.05;;;3.50;99.90;;;;;;5085736;28;20020;-74
2021/12/05 11:07:17;;;;;;;13.38;5.38;;;3.60;99.90;;;;;;5067614;28;20048;-77
2021/12/05 11:09:46;;;;;;;16.23;5.55;;;3.60;99.90;;;;;;5074990;28;20031;-78
2021/12/05 11:12:19;;;;;;;13.00;5.47;;;3.60;99.90;;;;;;5087649;28;20063;-79
2021/12/05 11:14:46;;;;;;;13.35;5.18;;;3.70;99.90;;;;;;5085932;28;20031;-80
2021/12/05 11:17:18;;;;;;;14.82;6.03;;;3.80;99.90;;;;;;5085434;28;20032;-76
2021/12/05 11:19:49;;;;;;;22.02;6.50;;;3.80;99.90;;;;;;5067616;28;20033;-75
2021/12/05 11:22:22;;;;;;;13.10;6.50;;;3.80;99.90;;;;;;5067484;28;20029;-76
2021/12/05 11:24:56;;;;;;;17.17;7.00;;;3.80;99.90;;;;;;5072592;28;20028;-76
2021/12/05 11:27:33;;;;;;;11.30;5.55;;;3.90;99.90;;;;;;5104939;28;20040;-74
2021/12/05 11:30:16;;;;;;;12.05;4.70;;;4.00;99.90;;;;;;5085283;28;20033;-73
2021/12/05 11:32:42;;;;;;;9.23;4.65;;;4.00;99.90;;;;;;5083620;28;20020;-74
2021/12/05 11:35:30;;;;;;;12.00;5.22;;;4.10;99.90;;;;;;5062990;28;20132;-76
2021/12/05 11:38:00;;;;;;;10.60;5.10;;;4.10;99.90;;;;;;5072121;28;20039;-74
2021/12/05 11:40:48;;;;;;;13.13;5.25;;;4.10;99.90;;;;;;5068548;28;20540;-73
2021/12/05 11:43:26;;;;;;;7.35;4.20;;;4.10;99.90;;;;;;5063483;28;20052;-74
2021/12/05 11:46:31;;;;;;;14.40;5.00;;;4.10;99.90;;;;;;5062636;28;20044;-75
2021/12/05 11:48:59;;;;;;;9.70;4.13;;;4.10;99.90;;;;;;5062895;28;20032;-74
2021/12/05 11:51:45;;;;;;;11.55;5.22;;;4.10;99.90;;;;;;5064886;28;20043;-75
2021/12/05 11:54:15;;;;;;;13.02;5.55;;;4.10;99.90;;;;;;5067524;28;20043;-78
2021/12/05 11:56:53;;;;;;;12.23;5.63;;;4.10;99.90;;;;;;5082487;28;20021;-76
2021/12/05 11:59:18;;;;;;;12.32;5.18;;;4.10;99.90;;;;;;5082679;28;20028;-75
2021/12/05 12:02:18;;;;;;;14.50;5.05;;;4.20;99.90;;;;;;5084155;28;20035;-77
2021/12/05 12:05:02;;;;;;;16.08;5.00;;;4.20;99.90;;;;;;5082675;28;20054;-78
2021/12/05 12:07:42;;;;;;;16.00;5.65;;;4.20;99.90;;;;;;5083867;28;20236;-74
2021/12/05 12:10:19;;;;;;;15.90;6.68;;;4.20;99.90;;;;;;5083966;28;20035;-74
2021/12/05 12:12:50;;;;;;;15.07;5.60;;;4.30;99.90;;;;;;5082226;28;20024;-75
2021/12/05 12:15:17;;;;;;;16.02;6.38;;;4.20;99.90;;;;;;5084050;28;20461;-75
2021/12/05 12:17:48;;;;;;;17.25;5.90;;;4.20;99.90;;;;;;5082798;28;20020;-76
2021/12/05 12:20:22;;;;;;;14.93;5.53;;;4.20;99.90;;;;;;5082740;28;20058;-73
2021/12/05 12:22:51;;;;;;;16.73;5.75;;;4.20;99.90;;;;;;5083722;28;20025;-74
2021/12/05 12:25:23;;;;;;;22.42;6.07;;;4.20;99.90;;;;;;5082067;28;20031;-75
2021/12/05 12:27:50;;;;;;;16.63;6.03;;;4.20;99.90;;;;;;5081452;28;20032;-76
2021/12/05 12:30:24;;;;;;;17.80;4.25;;;4.20;99.90;;;;;;5077742;28;20029;-76
2021/12/05 12:32:53;;;;;;;15.25;5.47;;;4.10;99.90;;;;;;5073492;28;20534;-76
2021/12/05 12:35:24;;;;;;;10.75;4.80;;;4.10;99.90;;;;;;5062447;28;20048;-75
2021/12/05 12:38:19;;;;;;;12.05;5.55;;;4.10;99.90;;;;;;5078513;28;20025;-74
2021/12/05 12:40:50;;;;;;;12.18;4.65;;;4.00;99.90;;;;;;5071854;28;20033;-75
2021/12/05 12:43:38;;;;;;;11.18;5.22;;;4.00;99.90;;;;;;5061915;28;20029;-76
2021/12/05 12:46:19;;;;;;;13.90;5.53;;;4.00;99.90;;;;;;5076157;28;20036;-73
2021/12/05 12:48:52;;;;;;;10.90;4.75;;;3.90;99.90;;;;;;5081672;28;20051;-74
2021/12/05 12:51:30;;;;;;;8.65;4.88;;;3.90;99.90;;;;;;5078475;28;20032;-75
2021/12/05 12:54:01;;;;;;;13.43;5.35;;;3.90;99.90;;;;;;5083610;28;20056;-73
2021/12/05 12:56:27;;;;;;;10.55;4.57;;;3.90;99.90;;;;;;5085923;28;20017;-75
2021/12/05 12:59:00;;;;;;;12.48;4.82;;;3.90;99.90;;;;;;5086881;28;20024;-76
2021/12/05 13:12:44;;;;;;;10.15;3.80;;;4.10;99.90;;;;;;5066641;28;20063;-77
2021/12/05 13:15:42;;;;;;;14.15;4.95;;;4.10;99.90;;;;;;5066072;28;20097;-78
2021/12/05 13:18:14;;;;;;;13.75;5.43;;;4.10;99.90;;;;;;5064978;28;20045;-77
2021/12/05 13:21:05;;;;;;;11.68;4.80;;;4.10;99.90;;;;;;5066096;28;20029;-77
2021/12/05 13:23:36;;;;;;;9.95;4.40;;;4.10;99.90;;;;;;5067124;28;20056;-74
2021/12/05 13:26:43;;;;;;;10.75;3.88;;;4.00;99.90;;;;;;5066083;28;20041;-75
2021/12/05 13:29:19;;;;;;;12.10;5.10;;;4.00;99.90;;;;;;5067311;28;20040;-75
2021/12/05 13:31:47;;;;;;;10.52;4.63;;;3.90;99.90;;;;;;5065489;28;20101;-79
2021/12/05 13:34:22;;;;;;;16.38;5.97;;;3.90;99.90;;;;;;5078497;28;20063;-78
2021/12/05 13:36:56;;;;;;;15.68;5.45;;;3.90;99.90;;;;;;5054241;28;20609;-75
2021/12/05 13:39:58;;;;;;;11.48;4.63;;;3.80;99.90;;;;;;5055055;28;20026;-78
2021/12/05 13:42:46;;;;;;;12.60;4.25;;;3.80;99.90;;;;;;5061241;28;20047;-77
2021/12/05 13:45:27;;;;;;;9.35;4.80;;;3.80;99.90;;;;;;5050399;28;20136;-78
2021/12/05 13:47:53;;;;;;;10.32;4.95;;;3.80;99.90;;;;;;5049689;28;20048;-83
2021/12/05 13:50:28;;;;;;;11.45;5.07;;;3.80;99.90;;;;;;5052453;28;20085;-80
2021/12/05 13:53:20;;;;;;;13.07;5.43;;;3.80;99.90;;;;;;5046522;28;20022;-80
2021/12/05 13:56:02;;;;;;;13.00;5.03;;;3.80;99.90;;;;;;5050274;28;20158;-80
2021/12/05 13:58:46;;;;;;;8.90;4.45;;;3.90;99.90;;;;;;5058772;28;20060;-78
2021/12/05 14:01:44;;;;;;;13.23;5.47;;;3.80;99.90;;;;;;5053651;28;20036;-80
2021/12/05 14:04:18;;;;;;;13.93;5.95;;;3.80;99.90;;;;;;5064576;28;20063;-78
2021/12/05 14:07:05;;;;;;;15.98;6.72;;;3.80;99.90;;;;;;5065899;28;20040;-76
2021/12/05 14:09:30;;;;;;;19.02;7.13;;;3.70;99.90;;;;;;5057581;28;20041;-75
2021/12/05 14:12:27;;;;;;;15.05;6.13;;;3.70;99.90;;;;;;5048210;28;20031;-74
2021/12/05 14:15:00;;;;;;;20.17;6.57;;;3.70;99.90;;;;;;5058813;28;20092;-74
2021/12/05 14:17:32;;;;;;;12.38;5.88;;;3.70;99.90;;;;;;5050926;28;20116;-76
2021/12/05 14:20:04;;;;;;;12.77;5.05;;;3.70;99.90;;;;;;5055371;28;20033;-76
2021/12/05 14:22:38;;;;;;;11.35;4.55;;;3.70;99.90;;;;;;5053941;28;20033;-76
2021/12/05 14:25:12;;;;;;;12.48;5.13;;;3.60;99.90;;;;;;5054395;28;20044;-76
2021/12/05 14:27:55;;;;;;;11.25;4.82;;;3.60;99.90;;;;;;5062338;28;20121;-75
2021/12/05 14:30:24;;;;;;;11.60;5.30;;;3.60;99.90;;;;;;5055499;28;20035;-73
2021/12/05 14:32:57;;;;;;;13.63;4.63;;;3.50;99.90;;;;;;5064890;28;20025;-74
2021/12/05 14:35:29;;;;;;;11.70;5.07;;;3.50;99.90;;;;;;5087507;28;20047;-75
2021/12/05 14:37:55;;;;;;;9.45;4.38;;;3.50;99.90;;;;;;5093754;28;20118;-77
2021/12/05 14:40:30;;;;;;;11.02;5.18;;;3.50;99.90;;;;;;5090048;28;20028;-79
2021/12/05 14:43:04;;;;;;;11.88;4.85;;;3.50;99.90;;;;;;5085899;28;20017;-81
2021/12/05 14:45:32;;;;;;;10.63;4.85;;;3.40;99.90;;;;;;5092397;28;20051;-78
2021/12/05 14:48:03;;;;;;;15.15;5.70;;;3.50;99.90;;;;;;5075842;28;20037;-80
2021/12/05 14:50:31;;;;;;;9.88;4.60;;;3.50;99.90;;;;;;5085546;28;20413;-79
2021/12/05 14:53:02;;;;;;;10.05;3.95;;;3.50;99.90;;;;;;5116327;28;20095;-78
2021/12/05 14:55:44;;;;;;;9.40;4.40;;;3.40;99.90;;;;;;5120143;28;20023;-76
2021/12/05 14:58:16;;;;;;;11.88;4.95;;;3.40;99.90;;;;;;5094422;28;20025;-78
2021/12/05 15:00:50;;;;;;;15.52;5.53;;;3.40;99.90;;;;;;5070640;28;20056;-80
2021/12/05 15:03:24;;;;;;;12.15;5.35;;;3.40;99.90;;;;;;5080115;28;20099;-79
2021/12/05 15:05:59;;;;;;;11.73;5.33;;;3.40;99.90;;;;;;5077555;28;20040;-79
2021/12/05 15:08:28;;;;;;;8.77;4.05;;;3.40;99.90;;;;;;5095353;28;20045;-81
2021/12/05 15:10:57;;;;;;;11.75;4.18;;;3.50;99.90;;;;;;5085696;28;20020;-80
2021/12/05 15:13:23;;;;;;;16.30;5.05;;;3.40;99.90;;;;;;5088246;28;20032;-80
2021/12/05 15:15:59;;;;;;;18.05;5.47;;;3.40;99.90;;;;;;5084294;28;20020;-79
2021/12/05 15:18:29;;;;;;;13.55;5.07;;;3.40;99.90;;;;;;5088011;28;20035;-82
2021/12/05 15:20:55;;;;;;;9.48;4.40;;;3.40;99.90;;;;;;5098163;28;20020;-78
2021/12/05 15:23:25;;;;;;;8.48;3.47;;;3.40;99.90;;;;;;5116566;28;20046;-79
2021/12/05 15:26:01;;;;;;;8.82;4.18;;;3.40;99.90;;;;;;5102811;28;20040;-79
2021/12/05 15:28:27;;;;;;;8.38;3.90;;;3.30;99.90;;;;;;5090876;28;20024;-77
2021/12/05 15:30:53;;;;;;;9.18;3.92;;;3.30;99.90;;;;;;5089709;28;20021;-78
2021/12/05 15:33:22;;;;;;;9.32;3.92;;;3.30;99.90;;;;;;5076654;28;20028;-76
2021/12/05 15:35:51;;;;;;;7.93;3.65;;;3.30;99.90;;;;;;5085221;28;20104;-82
2021/12/05 15:38:24;;;;;;;13.55;4.32;;;3.30;99.90;;;;;;5085248;28;20029;-79
2021/12/05 15:40:54;;;;;;;9.88;3.67;;;3.30;99.90;;;;;;5066880;28;20032;-81
2021/12/05 15:43:22;;;;;;;10.80;4.38;;;3.30;99.90;;;;;;5064089;28;20139;-79
2021/12/05 15:45:51;;;;;;;8.90;4.03;;;3.30;99.90;;;;;;5080244;28;20409;-79
2021/12/05 15:48:31;;;;;;;8.70;4.32;;;3.30;99.90;;;;;;5066173;28;20085;-79
2021/12/05 15:51:02;;;;;;;9.23;4.53;;;3.30;99.90;;;;;;5071743;28;20211;-78
2021/12/05 15:53:31;;;;;;;7.85;3.63;;;3.30;99.90;;;;;;5064997;28;20032;-78
2021/12/05 15:56:03;;;;;;;7.68;3.28;;;3.30;99.90;;;;;;5085717;28;20024;-79
2021/12/05 15:58:45;;;;;;;6.60;3.45;;;3.20;99.90;;;;;;5081398;28;20074;-78
2021/12/05 16:01:22;;;;;;;10.23;4.10;;;3.20;99.90;;;;;;5064666;28;20028;-78
2021/12/05 16:03:51;;;;;;;9.88;3.60;;;3.20;99.90;;;;;;5066265;28;20070;-78
2021/12/05 16:06:20;;;;;;;11.80;4.25;;;3.20;99.90;;;;;;5066933;28;20032;-79
2021/12/05 16:08:57;;;;;;;12.60;4.80;;;3.20;99.90;;;;;;5067938;28;20028;-80
2021/12/05 16:11:23;;;;;;;8.50;3.47;;;3.10;99.90;;;;;;5079618;28;20786;-78
2021/12/05 16:13:52;;;;;;;8.75;3.63;;;3.10;99.90;;;;;;5073663;28;20060;-79
2021/12/05 16:16:28;;;;;;;11.52;4.13;;;3.10;99.90;;;;;;5070571;28;20073;-78
2021/12/05 16:19:18;;;;;;;12.32;4.45;;;3.10;99.90;;;;;;5090010;28;20032;-79
2021/12/05 16:21:46;;;;;;;11.57;4.13;;;3.10;99.90;;;;;;5095918;28;20052;-80
2021/12/05 16:24:17;;;;;;;9.68;4.20;;;3.10;99.90;;;;;;5065744;28;20025;-78
2021/12/05 16:26:53;;;;;;;10.73;4.50;;;3.10;99.90;;;;;;5065641;28;20052;-78
2021/12/05 16:29:26;;;;;;;8.68;4.03;;;3.10;99.90;;;;;;5064460;28;20035;-79
2021/12/05 16:32:00;;;;;;;11.50;5.10;;;3.00;99.90;;;;;;5082970;28;20082;-77
2021/12/05 16:34:29;;;;;;;9.15;4.45;;;3.00;99.90;;;;;;5085453;28;20139;-77
2021/12/05 16:36:56;;;;;;;11.80;5.03;;;3.10;99.90;;;;;;5076024;28;20032;-79
2021/12/05 16:39:45;;;;;;;13.23;5.22;;;3.10;99.90;;;;;;5091161;28;20025;-78
2021/12/05 16:42:17;;;;;;;15.23;5.88;;;3.10;99.90;;;;;;5075562;28;20024;-80
2021/12/05 16:44:52;;;;;;;10.77;4.82;;;3.10;99.90;;;;;;5084554;28;20025;-81
2021/12/05 16:47:20;;;;;;;10.23;4.55;;;3.10;99.90;;;;;;5083783;28;20060;-81
2021/12/05 16:49:50;;;;;;;19.08;5.55;;;3.10;99.90;;;;;;5081598;28;20024;-82
2021/12/05 16:52:25;;;;;;;10.10;4.60;;;3.10;99.90;;;;;;5078505;28;20051;-79
2021/12/05 16:54:54;;;;;;;13.07;4.70;;;3.10;99.90;;;;;;5066212;28;20029;-79
2021/12/05 16:57:24;;;;;;;14.73;5.68;;;3.10;99.90;;;;;;5078957;28;20091;-78
2021/12/05 16:59:53;;;;;;;15.02;5.95;;;3.10;99.90;;;;;;5086625;28;20029;-74
2021/12/05 17:02:22;;;;;;;12.20;5.18;;;3.10;99.90;;;;;;5098731;28;20024;-79
2021/12/05 17:05:01;;;;;;;14.25;5.68;;;3.10;99.90;;;;;;5099734;28;20024;-79
2021/12/05 17:07:47;;;;;;;16.35;6.28;;;3.10;99.90;;;;;;5069965;28;20024;-79
2021/12/05 17:10:25;;;;;;;14.57;5.70;;;3.00;99.90;;;;;;5068973;28;20743;-78
2021/12/05 17:13:09;;;;;;;13.15;5.95;;;3.00;99.90;;;;;;5076658;28;20043;-80
2021/12/05 17:15:43;;;;;;;15.57;5.90;;;2.90;99.90;;;;;;5077365;28;20094;-81
2021/12/05 17:18:21;;;;;;;16.88;6.80;;;2.90;99.90;;;;;;5071028;28;20024;-81
2021/12/05 17:20:58;;;;;;;17.67;6.57;;;2.90;99.90;;;;;;5080532;28;20353;-81
2021/12/05 17:23:32;;;;;;;18.33;6.47;;;2.80;99.90;;;;;;5103673;28;20024;-81
2021/12/05 17:26:22;;;;;;;17.75;5.95;;;2.80;99.90;;;;;;5079593;28;20044;-81
2021/12/05 17:29:05;;;;;;;16.52;6.45;;;2.70;99.90;;;;;;5098233;28;20031;-81
2021/12/05 17:31:38;;;;;;;14.38;6.45;;;2.70;99.90;;;;;;5081498;28;20424;-79
2021/12/05 17:34:12;;;;;;;15.27;6.03;;;2.60;99.90;;;;;;5084338;28;20079;-80
2021/12/05 17:36:42;;;;;;;15.60;6.40;;;2.60;99.90;;;;;;5085215;28;20024;-81
2021/12/05 17:39:19;;;;;;;15.68;6.45;;;2.60;99.90;;;;;;5082934;28;20031;-80
2021/12/05 17:41:48;;;;;;;19.88;7.15;;;2.60;99.90;;;;;;5086159;28;20028;-80
2021/12/05 17:44:18;;;;;;;17.80;6.72;;;2.50;99.90;;;;;;5089261;28;20020;-79
2021/12/05 17:46:47;;;;;;;22.55;7.00;;;2.50;99.90;;;;;;5089181;28;20097;-80
2021/12/05 17:49:15;;;;;;;15.93;6.22;;;2.50;99.90;;;;;;5107578;28;20043;-80
2021/12/05 17:51:42;;;;;;;21.52;7.78;;;2.50;99.90;;;;;;5107553;28;20389;-81
2021/12/05 17:54:13;;;;;;;16.58;7.18;;;2.40;99.90;;;;;;5088685;28;20024;-80
2021/12/05 17:56:44;;;;;;;17.55;6.45;;;2.40;99.90;;;;;;5105156;28;20035;-80
2021/12/05 18:04:36;;;;;;;13.05;6.03;;;2.30;99.90;;;;;;5099453;28;20115;-80
2021/12/05 18:07:02;;;;;;;15.63;6.97;;;2.30;99.90;;;;;;5074584;28;20064;-79
2021/12/05 18:09:28;;;;;;;18.20;5.95;;;2.30;99.90;;;;;;5099134;28;20036;-78
2021/12/05 18:11:57;;;;;;;13.63;6.00;;;2.30;99.90;;;;;;5080966;28;20032;-79
2021/12/05 18:14:23;;;;;;;16.00;6.40;;;2.30;99.90;;;;;;5085298;28;20028;-77
2021/12/05 18:16:49;;;;;;;14.30;5.63;;;2.30;99.90;;;;;;5086838;28;20103;-76
2021/12/05 18:19:19;;;;;;;15.85;6.20;;;2.30;99.90;;;;;;5069896;28;20039;-76
2021/12/05 18:21:47;;;;;;;12.02;6.15;;;2.30;99.90;;;;;;5092013;28;20060;-77
2021/12/05 18:24:16;;;;;;;13.55;5.65;;;2.30;99.90;;;;;;5095186;28;20020;-76
2021/12/05 18:26:46;;;;;;;17.35;5.70;;;2.30;99.90;;;;;;5088287;28;20104;-78
2021/12/05 18:29:17;;;;;;;15.05;5.65;;;2.30;99.90;;;;;;5087339;28;20028;-76
2021/12/05 18:31:47;;;;;;;19.02;5.90;;;2.30;99.90;;;;;;5068623;28;20029;-75
2021/12/05 18:34:20;;;;;;;18.60;7.28;;;2.30;99.90;;;;;;5067619;28;20108;-77
2021/12/05 18:36:48;;;;;;;17.58;6.20;;;2.30;99.90;;;;;;5086432;28;20036;-75
2021/12/05 18:39:21;;;;;;;17.30;7.30;;;2.30;99.90;;;;;;5093650;28;20054;-76
2021/12/05 18:41:46;;;;;;;15.65;6.22;;;2.30;99.90;;;;;;5084840;28;20724;-76
2021/12/05 18:44:27;;;;;;;17.60;7.70;;;2.30;99.90;;;;;;5079103;28;20465;-77
2021/12/05 18:46:55;;;;;;;16.10;6.43;;;2.30;99.90;;;;;;5071354;28;20055;-77
2021/12/05 18:49:23;;;;;;;19.80;7.25;;;2.30;99.90;;;;;;5094923;28;20388;-77
2021/12/05 18:51:49;;;;;;;21.10;7.40;;;2.30;99.90;;;;;;5088039;28;20028;-77